createdAt,value
2019-05-19T00:02:18.620Z,22.10
2019-05-19T00:04:50.611Z,20.47
2019-05-19T00:07:22.738Z,20.70
2019-05-19T00:09:55.081Z,22.23
2019-05-19T00:12:26.937Z,22.13
2019-05-19T00:14:58.651Z,22.57
2019-05-19T00:17:31.302Z,21.17
2019-05-19T00:20:03.675Z,22.07
2019-05-19T00:22:35.851Z,20.73
2019-05-19T00:25:08.020Z,21.63
2019-05-19T00:27:40.367Z,19.53
2019-05-19T00:30:12.519Z,18.70
2019-05-19T00:32:44.483Z,19.57
2019-05-19T00:35:16.667Z,19.40
2019-05-19T00:37:48.485Z,17.07
2019-05-19T00:40:20.917Z,17.37
2019-05-19T00:42:53.126Z,19.97
2019-05-19T00:45:25.177Z,18.17
2019-05-19T00:47:57.491Z,20.10
2019-05-19T00:50:29.448Z,20.00
2019-05-19T00:53:01.287Z,17.60
2019-05-19T00:55:33.197Z,19.90
2019-05-19T00:58:06.254Z,17.73
2019-05-19T01:00:38.666Z,18.00
2019-05-19T01:03:10.771Z,17.40
2019-05-19T01:05:42.588Z,17.57
2019-05-19T01:08:14.682Z,18.63
2019-05-19T01:10:46.519Z,16.60
2019-05-19T01:13:18.476Z,17.83
2019-05-19T01:15:50.573Z,16.57
2019-05-19T01:18:22.863Z,16.43
2019-05-19T01:20:54.841Z,17.33
2019-05-19T01:23:27.000Z,16.67
2019-05-19T01:25:59.792Z,15.83
2019-05-19T01:28:31.655Z,16.87
2019-05-19T01:31:03.896Z,15.33
2019-05-19T01:33:36.387Z,15.97
2019-05-19T01:36:08.928Z,14.83
2019-05-19T01:38:40.756Z,14.93
2019-05-19T01:41:13.076Z,15.37
2019-05-19T01:43:45.139Z,14.40
2019-05-19T01:46:17.221Z,15.47
2019-05-19T01:48:49.043Z,16.90
2019-05-19T01:51:20.901Z,15.63
2019-05-19T01:53:52.862Z,12.97
2019-05-19T01:56:24.951Z,14.47
2019-05-19T01:58:57.434Z,15.17
2019-05-19T02:01:29.527Z,16.47
2019-05-19T02:04:01.538Z,12.40
2019-05-19T02:06:33.386Z,12.50
2019-05-19T02:09:05.899Z,15.03
2019-05-19T02:11:37.991Z,12.67
2019-05-19T02:14:10.321Z,12.33
2019-05-19T02:16:42.211Z,13.70
2019-05-19T02:19:14.062Z,13.93
2019-05-19T02:21:45.812Z,13.67
2019-05-19T02:24:17.776Z,13.83
2019-05-19T02:26:49.611Z,11.63
2019-05-19T02:29:21.595Z,12.70
2019-05-19T02:31:53.476Z,12.30
2019-05-19T02:34:25.333Z,13.23
2019-05-19T02:36:57.725Z,15.53
2019-05-19T02:39:29.890Z,12.43
2019-05-19T02:42:03.420Z,13.60
2019-05-19T02:44:36.903Z,13.83
2019-05-19T02:47:08.965Z,12.23
2019-05-19T02:49:42.758Z,13.13
2019-05-19T02:52:16.643Z,14.20
2019-05-19T02:54:49.140Z,13.23
2019-05-19T02:57:21.592Z,12.20
2019-05-19T02:59:53.711Z,15.33
2019-05-19T03:02:25.781Z,13.00
2019-05-19T03:04:57.734Z,12.43
2019-05-19T03:07:29.826Z,12.23
2019-05-19T03:10:01.877Z,11.63
2019-05-19T03:12:34.025Z,11.80
2019-05-19T03:15:06.492Z,11.37
2019-05-19T03:17:38.826Z,10.87
2019-05-19T03:20:11.046Z,12.20
2019-05-19T03:22:43.604Z,10.90
2019-05-19T03:25:15.736Z,12.87
2019-05-19T03:27:48.049Z,12.73
2019-05-19T03:30:37.649Z,13.43
2019-05-19T03:33:10.089Z,12.77
2019-05-19T03:35:42.391Z,11.30
2019-05-19T03:38:14.938Z,11.17
2019-05-19T03:40:47.086Z,13.47
2019-05-19T03:43:19.520Z,11.57
2019-05-19T03:45:51.749Z,12.07
2019-05-19T03:48:23.609Z,14.20
2019-05-19T03:50:55.532Z,11.40
2019-05-19T03:53:27.278Z,12.40
2019-05-19T03:55:59.085Z,14.37
2019-05-19T03:58:31.120Z,11.53
2019-05-19T04:01:03.063Z,13.43
2019-05-19T04:03:35.153Z,11.73
2019-05-19T04:06:07.317Z,12.83
2019-05-19T04:08:39.427Z,11.43
2019-05-19T04:11:11.482Z,12.20
2019-05-19T04:13:43.349Z,12.57
2019-05-19T04:16:15.172Z,12.60
2019-05-19T04:18:47.193Z,12.17
2019-05-19T04:21:19.083Z,13.07
2019-05-19T04:23:51.079Z,12.97
2019-05-19T04:26:22.809Z,11.03
2019-05-19T04:28:54.700Z,10.07
2019-05-19T04:31:26.775Z,11.63
2019-05-19T04:33:58.893Z,13.63
2019-05-19T04:36:31.024Z,14.20
2019-05-19T04:39:05.638Z,15.30
2019-05-19T04:41:40.259Z,13.33
2019-05-19T04:44:12.711Z,14.00
2019-05-19T04:46:46.022Z,11.73
2019-05-19T04:49:18.103Z,13.70
2019-05-19T04:52:05.474Z,14.47
2019-05-19T04:54:23.540Z,14.23
2019-05-19T04:56:55.463Z,13.37
2019-05-19T04:59:27.570Z,11.93
2019-05-19T05:01:59.740Z,12.37
2019-05-19T05:04:31.979Z,11.90
2019-05-19T05:07:04.107Z,11.70
2019-05-19T05:09:36.325Z,13.80
2019-05-19T05:12:08.727Z,13.70
2019-05-19T05:14:41.080Z,11.83
2019-05-19T05:17:12.915Z,13.27
2019-05-19T05:19:44.737Z,12.77
2019-05-19T05:22:21.985Z,14.93
2019-05-19T05:24:51.214Z,14.03
2019-05-19T05:27:23.308Z,13.97
2019-05-19T05:29:55.359Z,11.83
2019-05-19T05:32:27.626Z,13.17
2019-05-19T05:34:59.792Z,12.87
2019-05-19T05:37:31.825Z,13.33
2019-05-19T05:40:04.340Z,12.20
2019-05-19T05:42:36.387Z,13.80
2019-05-19T05:45:08.966Z,13.33
2019-05-19T05:47:40.893Z,15.10
2019-05-19T05:50:13.039Z,13.33
2019-05-19T05:52:45.384Z,14.10
2019-05-19T05:55:17.457Z,14.40
2019-05-19T05:57:49.271Z,16.73
2019-05-19T06:00:21.281Z,14.43
2019-05-19T06:02:53.088Z,13.87
2019-05-19T06:05:25.003Z,14.40
2019-05-19T06:07:57.052Z,13.40
2019-05-19T06:10:29.221Z,13.43
2019-05-19T06:13:01.475Z,13.83
2019-05-19T06:15:33.321Z,14.97
2019-05-19T06:18:05.230Z,12.20
2019-05-19T06:20:37.034Z,15.20
2019-05-19T06:23:08.885Z,13.43
2019-05-19T06:25:40.757Z,14.83
2019-05-19T06:28:12.879Z,14.07
2019-05-19T06:30:44.622Z,13.17
2019-05-19T06:33:16.324Z,14.63
2019-05-19T06:35:48.198Z,12.27
2019-05-19T06:38:20.256Z,12.87
2019-05-19T06:40:52.539Z,13.03
2019-05-19T06:43:24.787Z,14.63
2019-05-19T06:45:56.731Z,11.13
2019-05-19T06:48:28.571Z,14.63
2019-05-19T06:51:00.334Z,13.00
2019-05-19T06:53:32.364Z,12.27
2019-05-19T06:56:05.398Z,13.17
2019-05-19T06:58:37.324Z,13.50
2019-05-19T07:01:09.159Z,12.43
2019-05-19T07:03:41.015Z,11.57
2019-05-19T07:06:12.981Z,11.80
2019-05-19T07:08:44.819Z,13.63
2019-05-19T07:11:16.988Z,11.20
2019-05-19T07:13:49.060Z,12.17
2019-05-19T07:16:21.079Z,10.37
2019-05-19T07:18:52.962Z,11.73
2019-05-19T07:21:24.695Z,10.43
2019-05-19T07:23:57.009Z,11.60
2019-05-19T07:26:29.085Z,10.30
2019-05-19T07:29:01.036Z,12.37
2019-05-19T07:31:33.010Z,9.93
2019-05-19T07:34:04.823Z,13.97
2019-05-19T07:36:37.115Z,10.50
2019-05-19T07:39:08.939Z,9.73
2019-05-19T07:41:41.031Z,9.60
2019-05-19T07:44:12.872Z,9.53
2019-05-19T07:46:45.149Z,10.33
2019-05-19T07:49:16.963Z,8.60
2019-05-19T07:51:48.856Z,11.17
2019-05-19T07:54:20.801Z,9.70
2019-05-19T07:56:52.918Z,8.90
2019-05-19T07:59:24.995Z,8.70
2019-05-19T08:01:57.156Z,9.40
2019-05-19T08:04:29.965Z,8.13
2019-05-19T08:07:01.955Z,7.67
2019-05-19T08:09:33.738Z,10.23
2019-05-19T08:12:05.725Z,7.13
2019-05-19T08:14:37.840Z,7.00
2019-05-19T08:17:10.127Z,8.33
2019-05-19T08:19:42.347Z,7.33
2019-05-19T08:22:14.974Z,7.73
2019-05-19T08:24:46.988Z,6.70
2019-05-19T08:27:18.942Z,6.80
2019-05-19T08:29:50.834Z,6.93
2019-05-19T08:32:22.650Z,9.73
2019-05-19T08:34:54.546Z,7.40
2019-05-19T08:37:27.406Z,6.03
2019-05-19T08:39:59.488Z,5.90
2019-05-19T08:42:31.317Z,6.00
2019-05-19T08:45:04.156Z,6.13
2019-05-19T08:47:36.235Z,7.00
2019-05-19T08:50:08.255Z,6.83
2019-05-19T08:52:40.679Z,7.40
2019-05-19T08:55:12.618Z,7.47
2019-05-19T08:57:44.544Z,8.20
2019-05-19T09:00:16.475Z,7.83
2019-05-19T09:02:48.419Z,8.00
2019-05-19T09:05:20.484Z,9.07
2019-05-19T09:07:52.664Z,7.60
2019-05-19T09:10:24.700Z,7.27
2019-05-19T09:12:58.283Z,9.27
2019-05-19T09:15:30.330Z,6.13
2019-05-19T09:18:02.723Z,6.60
2019-05-19T09:20:35.041Z,7.83
2019-05-19T09:23:07.028Z,7.47
2019-05-19T09:25:39.031Z,6.50
2019-05-19T09:28:11.390Z,6.97
2019-05-19T09:30:43.234Z,6.13
2019-05-19T09:33:15.048Z,5.63
2019-05-19T09:35:46.875Z,6.20
2019-05-19T09:38:18.767Z,8.87
2019-05-19T09:40:50.668Z,6.30
2019-05-19T09:43:23.028Z,6.47
2019-05-19T09:45:55.098Z,6.03
2019-05-19T09:48:27.217Z,6.20
2019-05-19T09:50:59.224Z,6.00
2019-05-19T09:53:31.633Z,5.13
2019-05-19T09:56:03.815Z,5.93
2019-05-19T09:58:36.118Z,5.57
2019-05-19T10:01:08.511Z,5.30
2019-05-19T10:03:40.829Z,5.53
2019-05-19T10:06:12.787Z,4.67
2019-05-19T10:08:45.511Z,5.10
2019-05-19T10:11:45.588Z,5.17
2019-05-19T10:14:17.413Z,5.40
2019-05-19T10:16:49.683Z,5.10
2019-05-19T10:19:22.120Z,5.80
2019-05-19T10:21:54.709Z,5.77
2019-05-19T10:24:27.298Z,5.90
2019-05-19T10:26:59.236Z,5.87
2019-05-19T10:29:31.310Z,5.90
2019-05-19T10:32:03.208Z,5.70
2019-05-19T10:34:35.447Z,5.40
2019-05-19T10:37:07.740Z,5.40
2019-05-19T10:39:39.833Z,5.90
2019-05-19T10:42:11.886Z,6.33
2019-05-19T10:44:44.033Z,5.57
2019-05-19T10:47:17.822Z,6.10
2019-05-19T10:49:49.830Z,6.20
2019-05-19T10:52:21.880Z,6.53
2019-05-19T10:54:54.014Z,5.97
2019-05-19T10:57:25.926Z,6.10
2019-05-19T10:59:57.749Z,7.07
2019-05-19T11:02:29.892Z,5.90
2019-05-19T11:05:01.960Z,6.17
2019-05-19T11:07:34.067Z,6.30
2019-05-19T11:10:07.321Z,6.17
2019-05-19T11:12:39.475Z,6.93
2019-05-19T11:15:12.202Z,6.67
2019-05-19T11:17:45.584Z,6.50
2019-05-19T11:20:17.569Z,6.80
2019-05-19T11:22:49.980Z,6.03
2019-05-19T11:25:33.483Z,6.50
2019-05-19T11:27:55.842Z,6.83
2019-05-19T11:30:28.064Z,7.27
2019-05-19T11:33:00.273Z,5.80
2019-05-19T11:35:32.578Z,8.63
2019-05-19T11:38:04.570Z,7.43
2019-05-19T11:40:36.611Z,8.23
2019-05-19T11:43:08.680Z,6.07
2019-05-19T11:45:40.913Z,6.37
2019-05-19T11:48:12.884Z,8.43
2019-05-19T11:50:44.994Z,8.10
2019-05-19T11:53:17.067Z,5.50
2019-05-19T11:55:48.957Z,6.00
2019-05-19T11:58:21.030Z,6.43
2019-05-19T12:00:52.888Z,7.07
2019-05-19T12:03:24.939Z,6.87
2019-05-19T12:05:56.840Z,6.40
2019-05-19T12:08:28.678Z,8.30
2019-05-19T12:11:00.572Z,6.67
2019-05-19T12:13:34.929Z,10.07
2019-05-19T12:16:06.322Z,6.97
2019-05-19T12:18:38.158Z,7.80
2019-05-19T12:21:10.492Z,6.97
2019-05-19T12:23:42.591Z,7.50
2019-05-19T12:26:23.133Z,7.40
2019-05-19T12:28:48.964Z,7.00
2019-05-19T12:31:20.891Z,7.83
2019-05-19T12:33:52.813Z,7.47
2019-05-19T12:36:25.388Z,8.10
2019-05-19T12:38:57.798Z,10.23
2019-05-19T12:41:30.023Z,8.37
2019-05-19T12:44:02.167Z,7.10
2019-05-19T12:46:34.569Z,7.03
2019-05-19T12:49:06.828Z,7.40
2019-05-19T12:51:38.902Z,9.07
2019-05-19T12:54:10.784Z,8.47
2019-05-19T12:56:42.767Z,8.33
2019-05-19T12:59:14.764Z,7.43
2019-05-19T13:01:46.702Z,10.20
2019-05-19T13:04:18.848Z,8.37
2019-05-19T13:06:50.788Z,7.43
2019-05-19T13:09:22.882Z,8.33
2019-05-19T13:11:54.711Z,8.27
2019-05-19T13:14:26.586Z,8.30
2019-05-19T13:16:58.564Z,7.33
2019-05-19T13:19:30.666Z,7.30
2019-05-19T13:22:02.986Z,7.17
2019-05-19T13:24:34.956Z,8.80
2019-05-19T13:27:07.014Z,7.87
2019-05-19T13:29:38.858Z,8.40
2019-05-19T13:32:11.032Z,8.83
2019-05-19T13:34:42.883Z,8.57
2019-05-19T13:37:14.779Z,8.07
2019-05-19T13:39:46.513Z,8.47
2019-05-19T13:42:18.401Z,7.63
2019-05-19T13:44:50.468Z,7.87
2019-05-19T13:47:22.531Z,6.80
2019-05-19T13:49:54.509Z,8.07
2019-05-19T13:52:26.298Z,7.00
2019-05-19T13:54:58.620Z,6.47
2019-05-19T13:57:30.809Z,6.90
2019-05-19T14:00:03.008Z,7.80
2019-05-19T14:02:35.479Z,7.07
2019-05-19T14:05:07.303Z,7.07
2019-05-19T14:07:39.438Z,7.33
2019-05-19T14:10:11.489Z,7.70
2019-05-19T14:12:43.691Z,7.47
2019-05-19T14:15:15.929Z,9.67
2019-05-19T14:17:48.242Z,9.47
2019-05-19T14:20:20.061Z,9.63
2019-05-19T14:22:52.724Z,8.00
2019-05-19T14:25:24.554Z,8.20
2019-05-19T14:27:56.551Z,8.67
2019-05-19T14:30:28.768Z,8.27
2019-05-19T14:33:01.142Z,8.67
2019-05-19T14:35:33.186Z,7.87
2019-05-19T14:38:05.530Z,7.43
2019-05-19T14:40:37.682Z,8.83
2019-05-19T14:43:09.562Z,6.17
2019-05-19T14:45:41.402Z,6.17
2019-05-19T14:48:13.389Z,9.03
2019-05-19T14:50:45.246Z,5.70
2019-05-19T14:53:17.012Z,5.80
2019-05-19T14:55:48.837Z,7.10
2019-05-19T14:58:20.642Z,6.43
2019-05-19T15:00:52.935Z,6.30
2019-05-19T15:03:25.012Z,6.33
2019-05-19T15:05:57.130Z,6.37
2019-05-19T15:08:29.399Z,6.87
2019-05-19T15:11:01.451Z,7.37
2019-05-19T15:13:33.737Z,7.40
2019-05-19T15:16:05.563Z,11.07
2019-05-19T15:18:37.631Z,9.53
2019-05-19T15:21:09.492Z,7.77
2019-05-19T15:23:41.789Z,8.30
2019-05-19T15:26:13.626Z,9.20
2019-05-19T15:28:46.114Z,9.10
2019-05-19T15:31:17.956Z,8.73
2019-05-19T15:33:49.998Z,8.50
2019-05-19T15:36:22.216Z,8.27
2019-05-19T15:38:54.282Z,10.83
2019-05-19T15:41:26.390Z,9.10
2019-05-19T15:43:58.590Z,8.73
2019-05-19T15:46:30.740Z,9.23
2019-05-19T15:49:02.579Z,7.97
2019-05-19T15:51:37.787Z,7.90
2019-05-19T15:54:08.576Z,8.17
2019-05-19T15:56:40.436Z,8.00
2019-05-19T15:59:12.392Z,8.20
2019-05-19T16:01:44.363Z,7.80
2019-05-19T16:04:16.171Z,9.57
2019-05-19T16:06:48.779Z,8.17
2019-05-19T16:09:20.741Z,9.63
2019-05-19T16:11:52.708Z,9.07
2019-05-19T16:14:24.435Z,9.47
2019-05-19T16:16:56.783Z,8.13
2019-05-19T16:19:28.983Z,8.13
2019-05-19T16:22:01.307Z,8.13
2019-05-19T16:24:33.411Z,8.40
2019-05-19T16:27:05.351Z,8.03
2019-05-19T16:29:37.556Z,8.57
2019-05-19T16:32:09.412Z,8.90
2019-05-19T16:34:41.754Z,11.17
2019-05-19T16:37:13.627Z,10.37
2019-05-19T16:39:47.232Z,9.90
2019-05-19T16:42:19.076Z,9.57
2019-05-19T16:44:51.165Z,9.33
2019-05-19T16:47:23.162Z,9.10
2019-05-19T16:49:55.249Z,9.43
2019-05-19T16:52:27.327Z,9.10
2019-05-19T16:55:21.784Z,10.77
2019-05-19T16:57:54.258Z,9.63
2019-05-19T17:00:27.697Z,10.20
2019-05-19T17:03:00.177Z,10.43
2019-05-19T17:05:32.623Z,9.97
2019-05-19T17:08:04.629Z,9.87
2019-05-19T17:10:36.705Z,10.77
2019-05-19T17:13:08.971Z,10.97
2019-05-19T17:15:41.262Z,10.80
2019-05-19T17:18:13.323Z,12.60
2019-05-19T17:20:45.160Z,11.80
2019-05-19T17:23:17.169Z,12.23
2019-05-19T17:25:49.013Z,12.40
2019-05-19T17:28:20.880Z,11.20
2019-05-19T17:30:52.851Z,12.40
2019-05-19T17:33:24.635Z,12.77
2019-05-19T17:35:56.731Z,11.60
2019-05-19T17:38:29.048Z,12.20
2019-05-19T17:41:01.374Z,13.03
2019-05-19T17:43:33.265Z,11.87
2019-05-19T17:46:05.790Z,12.70
2019-05-19T17:48:38.178Z,12.43
2019-05-19T17:51:10.008Z,12.43
2019-05-19T17:53:42.659Z,12.00
2019-05-19T17:56:15.528Z,12.57
2019-05-19T17:58:47.711Z,12.07
2019-05-19T18:01:20.279Z,12.87
2019-05-19T18:03:52.131Z,12.10
2019-05-19T18:06:24.207Z,11.70
2019-05-19T18:08:56.203Z,12.03
2019-05-19T18:11:28.440Z,13.03
2019-05-19T18:14:00.289Z,12.60
2019-05-19T18:16:32.143Z,13.57
2019-05-19T18:19:04.335Z,14.33
2019-05-19T18:21:36.707Z,13.23
2019-05-19T18:24:08.605Z,13.53
2019-05-19T18:26:40.719Z,12.87
2019-05-19T18:29:12.589Z,12.77
2019-05-19T18:31:44.692Z,12.90
2019-05-19T18:34:16.807Z,12.87
2019-05-19T18:36:48.626Z,12.10
2019-05-19T18:39:20.758Z,11.73
2019-05-19T18:41:53.213Z,12.03
2019-05-19T18:44:25.164Z,11.77
2019-05-19T18:46:57.298Z,11.83
2019-05-19T18:49:29.537Z,11.37
2019-05-19T18:52:01.952Z,11.30
2019-05-19T18:54:33.967Z,11.73
2019-05-19T18:57:05.718Z,10.33
2019-05-19T18:59:46.818Z,9.83
2019-05-19T19:02:12.447Z,9.77
2019-05-19T19:04:44.461Z,10.07
2019-05-19T19:07:16.300Z,10.20
2019-05-19T19:09:48.396Z,10.53
2019-05-19T19:12:20.217Z,11.70
2019-05-19T19:14:52.219Z,10.43
2019-05-19T19:17:24.624Z,9.30
2019-05-19T19:19:56.660Z,10.10
2019-05-19T19:22:28.688Z,9.30
2019-05-19T19:25:00.947Z,8.70
2019-05-19T19:27:32.981Z,10.40
2019-05-19T19:30:05.637Z,10.00
2019-05-19T19:32:38.184Z,10.77
2019-05-19T19:35:10.278Z,10.77
2019-05-19T19:37:42.671Z,10.70
2019-05-19T19:40:20.678Z,9.90
2019-05-19T19:42:53.488Z,14.27
2019-05-19T19:45:25.802Z,11.27
2019-05-19T19:47:57.599Z,10.30
2019-05-19T19:50:31.634Z,10.63
2019-05-19T19:53:05.354Z,9.60
2019-05-19T19:55:37.883Z,10.13
2019-05-19T19:58:11.104Z,10.70
2019-05-19T20:00:44.650Z,10.27
2019-05-19T20:03:16.575Z,10.67
2019-05-19T20:05:48.646Z,11.23
2019-05-19T20:08:22.935Z,11.00
2019-05-19T20:10:55.133Z,11.23
2019-05-19T20:13:27.232Z,11.27
2019-05-19T20:15:59.128Z,11.23
2019-05-19T20:18:31.034Z,10.47
2019-05-19T20:21:03.156Z,11.07
2019-05-19T20:23:35.268Z,12.03
2019-05-19T20:26:07.356Z,10.90
2019-05-19T20:28:39.122Z,10.47
2019-05-19T20:31:11.097Z,10.93
2019-05-19T20:33:48.581Z,11.50
2019-05-19T20:36:28.121Z,11.80
2019-05-19T20:39:00.338Z,11.77
2019-05-19T20:41:33.730Z,11.73
2019-05-19T20:44:06.894Z,11.47
2019-05-19T20:46:38.962Z,11.10
2019-05-19T20:49:14.136Z,12.00
2019-05-19T20:51:46.605Z,11.87
2019-05-19T20:54:18.423Z,12.23
2019-05-19T20:56:50.734Z,12.07
2019-05-19T20:59:23.040Z,12.27
2019-05-19T21:01:55.298Z,12.53
2019-05-19T21:04:27.489Z,12.10
2019-05-19T21:06:59.523Z,12.43
2019-05-19T21:09:31.368Z,13.83
2019-05-19T21:12:03.429Z,13.50
2019-05-19T21:14:35.231Z,14.57
2019-05-19T21:17:07.355Z,13.37
2019-05-19T21:19:39.418Z,13.47
2019-05-19T21:22:11.455Z,14.17
2019-05-19T21:24:43.762Z,13.97
2019-05-19T21:27:15.889Z,15.83
2019-05-19T21:29:47.916Z,13.73
2019-05-19T21:32:19.973Z,13.53
2019-05-19T21:34:52.133Z,13.60
2019-05-19T21:37:24.242Z,16.63
2019-05-19T21:39:56.670Z,13.97
2019-05-19T21:42:28.661Z,14.03
2019-05-19T21:45:04.991Z,13.70
2019-05-19T21:47:37.306Z,13.67
2019-05-19T21:50:09.543Z,14.33
2019-05-19T21:52:41.530Z,14.17
2019-05-19T21:55:13.578Z,14.10
2019-05-19T21:57:45.327Z,16.47
2019-05-19T22:00:17.525Z,13.13
2019-05-19T22:02:49.956Z,14.87
2019-05-19T22:05:21.979Z,14.03
2019-05-19T22:08:02.513Z,14.13
2019-05-19T22:10:34.691Z,17.67
2019-05-19T22:13:06.718Z,14.70
2019-05-19T22:15:39.067Z,14.60
2019-05-19T22:18:11.185Z,14.10
2019-05-19T22:20:43.580Z,14.47
2019-05-19T22:23:15.407Z,16.30
2019-05-19T22:25:47.267Z,14.43
2019-05-19T22:28:19.409Z,15.60
2019-05-19T22:30:51.158Z,15.57
2019-05-19T22:33:23.327Z,15.53
2019-05-19T22:35:55.642Z,14.77
2019-05-19T22:38:27.913Z,17.73
2019-05-19T22:40:59.746Z,16.37
2019-05-19T22:43:31.583Z,15.53
2019-05-19T22:46:03.342Z,15.83
2019-05-19T22:48:35.187Z,21.73
2019-05-19T22:51:07.291Z,16.00
2019-05-19T22:53:39.352Z,17.97
2019-05-19T22:56:11.449Z,16.50
2019-05-19T22:58:43.609Z,16.63
2019-05-19T23:01:15.959Z,16.40
2019-05-19T23:03:48.281Z,17.40
2019-05-19T23:06:20.677Z,17.73
2019-05-19T23:08:52.529Z,16.60
2019-05-19T23:11:24.609Z,16.90
2019-05-19T23:13:56.728Z,17.83
2019-05-19T23:16:28.777Z,17.73
2019-05-19T23:19:00.619Z,18.10
2019-05-19T23:21:34.485Z,17.20
2019-05-19T23:24:06.882Z,16.63
2019-05-19T23:26:38.970Z,18.90
2019-05-19T23:29:11.272Z,16.83
2019-05-19T23:31:43.077Z,18.47
2019-05-19T23:34:14.858Z,17.43
2019-05-19T23:36:46.667Z,17.80
2019-05-19T23:39:18.511Z,18.20
2019-05-19T23:41:50.333Z,20.20
2019-05-19T23:44:22.300Z,20.03
2019-05-19T23:46:54.319Z,18.80
2019-05-19T23:49:26.377Z,18.47
2019-05-19T23:51:58.428Z,19.33
2019-05-19T23:54:30.478Z,18.93
2019-05-19T23:57:02.643Z,19.77
2019-05-19T23:59:34.460Z,18.23
